This is the latest recevied weather packets stored in our database for station/object HB9HJL-11. If no packets are shown the sender has not sent any weather packets the latest 1 day(s).
| Time | Temp. | Humidity | Pressure | Rain* | Wind** | Luminosity | Snow |
|---|---|---|---|---|---|---|---|
| 1778169838 | 16.11° C | 57% | 932 hPa | - | - | - | - |
| 1778168938 | 16.11° C | 56% | 930 hPa | - | - | - | - |
| 1778168038 | 15.56° C | 56% | 930 hPa | - | - | - | - |
| 1778167137 | 15.56° C | 56% | 930 hPa | - | - | - | - |
| 1778166237 | 16.11° C | 57% | 931 hPa | - | - | - | - |
| 1778165337 | 16.11° C | 59% | 935 hPa | - | - | - | - |
| 1778164437 | 17.78° C | 57% | 934 hPa | - | - | - | - |
| 1778163537 | 16.67° C | 53% | 926 hPa | - | - | - | - |
| 1778162637 | 16.67° C | 54% | 926 hPa | - | - | - | - |
| 1778161737 | 17.22° C | 58% | 934 hPa | - | - | - | - |
| 1778160837 | 16.67° C | 59% | 933 hPa | - | - | - | - |
| 1778159937 | 17.22° C | 59% | 934 hPa | - | - | - | - |
| 1778159037 | 16.67° C | 56% | 930 hPa | - | - | - | - |
| 1778158136 | 17.22° C | 60% | 936 hPa | - | - | - | - |
| 1778157236 | 15° C | 62% | 935 hPa | - | - | - | - |
| 1778156336 | 15.56° C | 59% | 931 hPa | - | - | - | - |
| 1778155436 | 14.44° C | 65% | 935 hPa | - | - | - | - |
| 1778154536 | 14.44° C | 66% | 937 hPa | - | - | - | - |
| 1778153636 | 14.44° C | 65% | 936 hPa | - | - | - | - |
| 1778152736 | 15° C | 65% | 936 hPa | - | - | - | - |
| 1778151836 | 15° C | 65% | 936 hPa | - | - | - | - |
* Rain since midnight (hover to see other rain measurements)
** Current wind speed in m/s (hover to see current wind gust speed)